Time;durP1;ratioP1;P1;durP2;ratioP2;P2;SDS_P1;SDS_P2;PMS_P1;PMS_P2;Temp;Humidity;BMP_temperature;BMP_pressure;BME280_temperature;BME280_humidity;BME280_pressure;Samples;Min_cycle;Max_cycle;Signal;HPM_P1;HPM_P2
2023/10/07 00:01:04;;;;;;;7.20;5.00;;;12.60;99.90;;;;;;6129321;23;20454;-75
2023/10/07 00:03:31;;;;;;;6.67;4.60;;;12.50;99.90;;;;;;6143468;23;20427;-72
2023/10/07 00:06:02;;;;;;;5.77;4.17;;;12.50;99.90;;;;;;6142659;23;20386;-74
2023/10/07 00:08:28;;;;;;;10.77;5.40;;;12.50;99.90;;;;;;6144422;23;20471;-74
2023/10/07 00:10:58;;;;;;;13.23;5.97;;;12.40;99.90;;;;;;6152112;23;20439;-73
2023/10/07 00:13:26;;;;;;;10.87;4.00;;;12.50;99.90;;;;;;6152455;23;20402;-72
2023/10/07 00:15:53;;;;;;;7.83;4.40;;;12.40;99.90;;;;;;6148559;23;20407;-76
2023/10/07 00:18:19;;;;;;;6.50;4.37;;;12.40;99.90;;;;;;6127562;23;20442;-73
2023/10/07 00:20:53;;;;;;;8.43;5.40;;;12.40;99.90;;;;;;6176072;23;20828;-74
2023/10/07 00:23:28;;;;;;;9.37;5.40;;;12.40;99.90;;;;;;6142821;23;20545;-73
2023/10/07 00:25:56;;;;;;;10.43;5.10;;;12.50;99.90;;;;;;6117874;23;20376;-73
2023/10/07 00:28:32;;;;;;;8.23;5.10;;;12.50;99.90;;;;;;6143801;23;20367;-74
2023/10/07 00:31:02;;;;;;;10.33;4.70;;;12.50;99.90;;;;;;6143037;23;20501;-74
2023/10/07 00:33:30;;;;;;;8.30;4.07;;;12.40;99.90;;;;;;6142528;23;20400;-73
2023/10/07 00:36:02;;;;;;;7.63;4.77;;;12.40;99.90;;;;;;6116868;23;20375;-73
2023/10/07 00:38:37;;;;;;;6.40;4.10;;;12.40;99.90;;;;;;6142093;23;20410;-74
2023/10/07 00:41:03;;;;;;;6.93;4.37;;;12.40;99.90;;;;;;6141936;23;20391;-73
2023/10/07 00:43:32;;;;;;;6.50;4.03;;;12.40;99.90;;;;;;6141420;23;20483;-74
2023/10/07 00:46:10;;;;;;;7.70;4.07;;;12.40;99.90;;;;;;6141502;23;20455;-72
2023/10/07 00:48:47;;;;;;;8.73;5.73;;;12.30;99.90;;;;;;6140714;23;20378;-76
2023/10/07 00:51:17;;;;;;;5.40;3.80;;;12.40;99.90;;;;;;6117197;23;20417;-73
2023/10/07 00:53:45;;;;;;;9.00;3.83;;;12.40;99.90;;;;;;6140764;23;20899;-72
2023/10/07 00:56:14;;;;;;;8.77;4.87;;;12.40;99.90;;;;;;6140771;23;20368;-72
2023/10/07 00:58:46;;;;;;;7.63;4.63;;;12.40;99.90;;;;;;6142988;23;20407;-73
2023/10/07 01:01:13;;;;;;;10.83;5.30;;;12.40;99.90;;;;;;6166119;23;20482;-73
2023/10/07 01:03:48;;;;;;;6.60;5.00;;;12.40;99.90;;;;;;6116190;23;20422;-72
2023/10/07 01:06:27;;;;;;;5.23;4.20;;;12.40;99.90;;;;;;6137903;23;20503;-73
2023/10/07 01:09:03;;;;;;;5.83;3.83;;;12.40;99.90;;;;;;6138402;23;20369;-71
2023/10/07 01:11:30;;;;;;;8.20;4.60;;;12.40;99.90;;;;;;6140015;23;20433;-74
2023/10/07 01:13:57;;;;;;;10.27;4.83;;;12.50;99.90;;;;;;6137058;23;20403;-72
2023/10/07 01:16:44;;;;;;;6.27;3.90;;;12.70;99.90;;;;;;6136212;23;20433;-72
2023/10/07 01:21:55;;;;;;;5.33;3.50;;;12.80;99.90;;;;;;6135548;23;20797;-71
2023/10/07 01:27:28;;;;;;;5.37;3.40;;;12.80;99.90;;;;;;6136467;23;20391;-72
2023/10/07 01:32:48;;;;;;;3.97;2.97;;;12.70;99.90;;;;;;6134537;23;20390;-72
2023/10/07 01:35:16;;;;;;;4.77;3.30;;;12.70;99.90;;;;;;6136584;23;20859;-75
2023/10/07 01:37:59;;;;;;;6.10;4.30;;;12.70;99.90;;;;;;6138777;23;20363;-73
2023/10/07 01:40:31;;;;;;;6.17;4.30;;;12.80;99.90;;;;;;6136990;23;20358;-73
2023/10/07 01:42:57;;;;;;;8.03;4.00;;;12.80;99.90;;;;;;6136027;23;20371;-73
2023/10/07 01:45:22;;;;;;;6.80;4.13;;;12.80;99.90;;;;;;6135846;23;20428;-72
2023/10/07 01:47:57;;;;;;;6.00;3.80;;;12.70;99.90;;;;;;6137253;23;20211;-72
2023/10/07 01:50:24;;;;;;;4.90;3.90;;;12.70;99.90;;;;;;6135982;23;20210;-71
2023/10/07 01:52:55;;;;;;;7.27;4.43;;;12.70;99.90;;;;;;6133693;23;20470;-73
2023/10/07 01:55:20;;;;;;;8.40;5.00;;;12.60;99.90;;;;;;6135395;23;20376;-71
2023/10/07 01:57:50;;;;;;;6.93;3.20;;;12.60;99.90;;;;;;6135464;23;20758;-72
2023/10/07 02:00:37;;;;;;;7.03;4.40;;;12.70;99.90;;;;;;6135414;23;20718;-72
2023/10/07 02:03:03;;;;;;;8.83;4.00;;;12.80;99.90;;;;;;6134953;23;20383;-71
2023/10/07 02:05:40;;;;;;;5.43;3.97;;;12.80;99.90;;;;;;6134556;23;20380;-73
2023/10/07 02:08:14;;;;;;;4.70;3.27;;;12.90;99.90;;;;;;6135841;23;20371;-73
2023/10/07 02:10:41;;;;;;;5.70;3.43;;;12.90;99.90;;;;;;6133348;23;20417;-73
2023/10/07 02:13:14;;;;;;;5.33;3.50;;;12.90;99.90;;;;;;6108479;23;20388;-73
2023/10/07 02:15:46;;;;;;;3.73;3.07;;;12.90;99.90;;;;;;6135620;23;20371;-73
2023/10/07 02:18:15;;;;;;;4.97;3.80;;;12.90;99.90;;;;;;6109515;23;20462;-74
2023/10/07 02:20:52;;;;;;;9.23;3.83;;;12.80;99.90;;;;;;6134071;23;20377;-72
2023/10/07 02:23:43;;;;;;;5.67;4.00;;;12.80;99.90;;;;;;6136109;23;20875;-73
2023/10/07 02:26:16;;;;;;;6.63;3.50;;;12.70;99.90;;;;;;6133412;23;20881;-71
2023/10/07 02:28:44;;;;;;;10.43;4.80;;;12.70;99.90;;;;;;6135665;23;20387;-73
2023/10/07 02:31:15;;;;;;;6.53;4.23;;;12.60;99.90;;;;;;6134980;23;20509;-72
2023/10/07 02:33:42;;;;;;;8.43;5.37;;;12.60;99.90;;;;;;6133829;23;20406;-73
2023/10/07 02:36:28;;;;;;;6.60;3.80;;;12.60;99.90;;;;;;6133548;23;20363;-72
2023/10/07 02:39:02;;;;;;;7.53;4.07;;;12.70;99.90;;;;;;6133964;23;20425;-72
2023/10/07 02:41:31;;;;;;;12.50;4.77;;;12.70;99.90;;;;;;6133410;23;20382;-72
2023/10/07 02:44:10;;;;;;;7.77;4.47;;;12.70;99.90;;;;;;6133154;23;20427;-73
2023/10/07 02:46:35;;;;;;;5.77;4.00;;;12.70;99.90;;;;;;6138750;23;20378;-73
2023/10/07 02:49:06;;;;;;;6.03;4.23;;;12.70;99.90;;;;;;6109648;23;20666;-73
2023/10/07 02:51:39;;;;;;;7.03;3.77;;;12.70;99.90;;;;;;6109898;23;20174;-71
2023/10/07 02:54:21;;;;;;;6.00;3.57;;;12.70;99.90;;;;;;6135093;23;20411;-72
2023/10/07 02:57:07;;;;;;;10.17;4.17;;;12.70;99.90;;;;;;6132264;23;20917;-72
2023/10/07 02:59:36;;;;;;;6.60;3.97;;;12.70;99.90;;;;;;6132689;23;20365;-72
2023/10/07 03:04:58;;;;;;;7.23;3.57;;;12.70;99.90;;;;;;6132977;23;20393;-73
2023/10/07 03:07:25;;;;;;;8.50;3.90;;;12.70;99.90;;;;;;6134189;23;20455;-73
2023/10/07 03:09:54;;;;;;;8.23;3.93;;;12.70;99.90;;;;;;6160276;23;20399;-71
2023/10/07 03:12:30;;;;;;;5.00;3.80;;;12.70;99.90;;;;;;6136041;23;20405;-73
2023/10/07 03:14:59;;;;;;;8.03;4.33;;;12.60;99.90;;;;;;6135998;23;20407;-72
2023/10/07 03:17:34;;;;;;;5.43;3.93;;;12.70;99.90;;;;;;6134799;23;20522;-72
2023/10/07 03:20:27;;;;;;;4.93;3.20;;;12.70;99.90;;;;;;6134250;23;20363;-72
2023/10/07 03:28:16;;;;;;;6.33;4.10;;;12.80;99.90;;;;;;6135864;23;20364;-71
2023/10/07 03:30:55;;;;;;;5.90;3.50;;;12.80;99.90;;;;;;6135714;23;20556;-72
2023/10/07 03:38:32;;;;;;;5.57;4.23;;;12.90;99.90;;;;;;6134135;23;20773;-72
2023/10/07 03:40:58;;;;;;;6.13;4.07;;;12.90;99.90;;;;;;6135730;23;20142;-72
2023/10/07 03:43:27;;;;;;;4.83;3.50;;;13.00;99.90;;;;;;6134745;23;20187;-73
2023/10/07 03:45:56;;;;;;;5.60;4.23;;;13.00;99.90;;;;;;6109043;23;20490;-73
2023/10/07 03:48:23;;;;;;;5.30;3.80;;;13.00;99.90;;;;;;6133768;23;20371;-72
2023/10/07 03:50:59;;;;;;;8.70;4.50;;;13.00;99.90;;;;;;6133021;23;20419;-74
2023/10/07 03:53:31;;;;;;;5.23;3.83;;;13.10;99.90;;;;;;6133162;23;20395;-72
2023/10/07 03:56:06;;;;;;;5.97;3.67;;;13.10;99.90;;;;;;6135296;23;20387;-72
2023/10/07 03:58:33;;;;;;;6.13;4.73;;;13.10;99.90;;;;;;6133856;23;20803;-71
2023/10/07 04:01:22;;;;;;;7.93;3.80;;;13.20;99.90;;;;;;6136628;23;20415;-72
2023/10/07 04:03:50;;;;;;;6.50;4.27;;;13.20;99.90;;;;;;6133656;23;20390;-72
2023/10/07 04:06:20;;;;;;;4.23;3.40;;;13.20;99.90;;;;;;6135335;23;20363;-72
2023/10/07 04:08:52;;;;;;;4.27;2.87;;;13.20;99.90;;;;;;6137146;23;20363;-73
2023/10/07 04:11:28;;;;;;;3.97;3.03;;;13.20;99.90;;;;;;6137448;23;20417;-73
2023/10/07 04:13:56;;;;;;;8.43;3.90;;;13.30;99.90;;;;;;6135175;23;20402;-73
2023/10/07 04:16:23;;;;;;;7.43;4.00;;;13.30;99.90;;;;;;6137029;23;20356;-72
2023/10/07 04:18:58;;;;;;;6.67;4.27;;;13.30;99.90;;;;;;6135793;23;20167;-73
2023/10/07 04:21:24;;;;;;;5.70;4.03;;;13.30;99.90;;;;;;6136489;23;20436;-71
2023/10/07 04:23:50;;;;;;;7.60;4.23;;;13.40;99.90;;;;;;6136176;23;20709;-71
2023/10/07 04:26:21;;;;;;;8.33;4.60;;;13.40;99.90;;;;;;6137265;23;20368;-72
2023/10/07 04:28:48;;;;;;;5.23;3.67;;;13.40;99.90;;;;;;6136414;23;20211;-71
2023/10/07 04:31:17;;;;;;;6.23;4.00;;;13.40;99.90;;;;;;6138720;23;20673;-71
2023/10/07 04:33:53;;;;;;;6.67;5.60;;;13.40;99.90;;;;;;6139259;23;20384;-72
2023/10/07 04:36:33;;;;;;;9.90;4.70;;;13.50;99.90;;;;;;6141004;23;20391;-74
2023/10/07 04:39:08;;;;;;;8.37;5.17;;;13.50;99.90;;;;;;6139186;23;20356;-72
2023/10/07 04:41:36;;;;;;;9.30;5.40;;;13.50;99.90;;;;;;6137170;23;20381;-73
2023/10/07 04:44:20;;;;;;;11.00;5.17;;;13.60;99.90;;;;;;6162562;23;20422;-72
2023/10/07 04:46:56;;;;;;;7.93;5.37;;;13.60;99.90;;;;;;6137000;23;20393;-72
2023/10/07 04:49:28;;;;;;;7.63;5.10;;;13.70;99.90;;;;;;6139826;23;20362;-73
2023/10/07 04:51:58;;;;;;;10.43;5.83;;;13.80;99.90;;;;;;6138519;23;20716;-72
2023/10/07 04:54:23;;;;;;;9.27;5.00;;;13.80;99.90;;;;;;6138380;23;20415;-72
2023/10/07 04:57:00;;;;;;;5.67;4.03;;;13.90;99.90;;;;;;6111442;23;20379;-72
2023/10/07 04:59:27;;;;;;;8.23;4.60;;;13.90;99.90;;;;;;6137853;23;20140;-74
2023/10/07 05:01:56;;;;;;;6.20;4.63;;;13.90;99.90;;;;;;6136175;23;20411;-73
2023/10/07 05:04:24;;;;;;;7.63;4.83;;;14.00;99.90;;;;;;6137106;23;20399;-72
2023/10/07 05:06:51;;;;;;;4.80;3.70;;;14.00;99.90;;;;;;6137664;23;20363;-73
2023/10/07 05:09:21;;;;;;;4.50;3.33;;;14.00;99.90;;;;;;6137854;23;20370;-72
2023/10/07 05:11:48;;;;;;;6.67;4.37;;;14.00;99.90;;;;;;6137548;23;20462;-71
2023/10/07 05:14:17;;;;;;;6.70;4.40;;;14.00;99.90;;;;;;6137643;23;20418;-72
2023/10/07 05:16:46;;;;;;;6.60;4.27;;;14.10;99.90;;;;;;6114437;23;20376;-73
2023/10/07 05:19:22;;;;;;;5.97;4.90;;;14.10;99.90;;;;;;6112219;23;20883;-70
2023/10/07 05:24:56;;;;;;;6.47;3.97;;;14.10;99.90;;;;;;6089855;23;20398;-72
2023/10/07 05:27:23;;;;;;;5.37;4.00;;;14.20;99.90;;;;;;6113095;23;20387;-73
2023/10/07 05:29:49;;;;;;;5.70;4.33;;;14.10;99.90;;;;;;6137473;23;20371;-72
2023/10/07 05:32:17;;;;;;;9.73;6.90;;;14.10;99.90;;;;;;6116501;23;20412;-72
2023/10/07 05:34:45;;;;;;;8.40;5.20;;;14.10;99.90;;;;;;6139081;23;20662;-73
2023/10/07 05:37:12;;;;;;;9.70;5.57;;;14.10;99.90;;;;;;6140355;23;20367;-73
2023/10/07 05:39:41;;;;;;;9.47;5.40;;;14.10;99.90;;;;;;6141455;23;20363;-72
2023/10/07 05:42:08;;;;;;;7.17;5.67;;;14.10;99.90;;;;;;6137489;23;20144;-74
2023/10/07 05:44:37;;;;;;;5.37;4.60;;;14.10;99.90;;;;;;6141290;23;20419;-73
2023/10/07 05:47:02;;;;;;;7.30;4.80;;;14.10;99.90;;;;;;6144176;23;20775;-73
2023/10/07 05:49:31;;;;;;;11.90;5.57;;;14.10;99.90;;;;;;6142224;23;20423;-73
2023/10/07 05:51:58;;;;;;;6.70;4.80;;;14.10;99.90;;;;;;6141057;23;20167;-75
2023/10/07 05:54:28;;;;;;;8.13;4.33;;;14.10;99.90;;;;;;6141856;23;20459;-72
2023/10/07 05:56:54;;;;;;;6.87;3.90;;;14.10;99.90;;;;;;6142492;23;20380;-73
2023/10/07 05:59:22;;;;;;;6.80;3.80;;;14.10;99.90;;;;;;6166201;23;20447;-74
2023/10/07 06:01:48;;;;;;;6.67;4.30;;;14.10;99.90;;;;;;6143071;23;20419;-73
2023/10/07 06:04:14;;;;;;;5.67;3.97;;;14.10;99.90;;;;;;6116997;23;20435;-73
2023/10/07 06:06:42;;;;;;;6.23;3.90;;;14.10;99.90;;;;;;6141413;23;20368;-73
2023/10/07 06:09:13;;;;;;;5.90;3.20;;;14.20;99.90;;;;;;6142096;23;20136;-72
2023/10/07 06:11:40;;;;;;;6.23;3.50;;;14.20;99.90;;;;;;6141674;23;20415;-72
2023/10/07 06:14:06;;;;;;;8.23;5.30;;;14.20;99.90;;;;;;6140935;23;20387;-72
2023/10/07 06:16:32;;;;;;;6.40;4.10;;;14.30;99.90;;;;;;6142809;23;20376;-73
2023/10/07 06:18:58;;;;;;;6.07;4.00;;;14.40;99.90;;;;;;6117053;23;20447;-72
2023/10/07 06:21:31;;;;;;;6.40;3.73;;;14.40;99.90;;;;;;6140581;23;20584;-72
2023/10/07 06:24:04;;;;;;;4.40;3.90;;;14.40;99.90;;;;;;6142230;23;20418;-73
2023/10/07 06:26:30;;;;;;;5.50;4.00;;;14.40;99.90;;;;;;6117805;23;20386;-74
2023/10/07 06:28:56;;;;;;;4.50;3.63;;;14.50;99.90;;;;;;6117780;23;20379;-72
2023/10/07 06:31:22;;;;;;;5.47;3.83;;;14.50;99.90;;;;;;6117454;23;20526;-73
2023/10/07 06:33:59;;;;;;;5.80;4.40;;;14.60;99.90;;;;;;6141969;23;20458;-74
2023/10/07 06:36:30;;;;;;;6.67;3.57;;;14.60;99.90;;;;;;6138814;23;20376;-73
2023/10/07 06:38:58;;;;;;;4.10;3.47;;;14.70;99.90;;;;;;6112978;23;20375;-73
2023/10/07 06:41:29;;;;;;;3.90;3.07;;;14.70;99.90;;;;;;6137783;23;20383;-71
2023/10/07 06:44:02;;;;;;;11.27;4.80;;;14.80;99.90;;;;;;6135565;23;20395;-74
2023/10/07 06:46:29;;;;;;;7.47;4.33;;;14.80;99.90;;;;;;6139338;23;20855;-74
2023/10/07 06:48:56;;;;;;;7.20;4.70;;;14.80;99.90;;;;;;6138926;23;20623;-75
2023/10/07 06:51:29;;;;;;;8.60;5.13;;;14.80;99.90;;;;;;6142222;23;20440;-73
2023/10/07 06:53:58;;;;;;;5.80;4.63;;;14.80;99.90;;;;;;6117513;23;20399;-73
2023/10/07 06:56:24;;;;;;;9.83;5.87;;;14.80;99.90;;;;;;6095332;23;20376;-74
2023/10/07 06:58:59;;;;;;;8.60;5.17;;;14.80;99.90;;;;;;6120207;23;20386;-73
2023/10/07 07:01:51;;;;;;;13.20;5.17;;;14.80;99.90;;;;;;6140468;23;20226;-74
2023/10/07 07:04:19;;;;;;;10.83;5.83;;;14.90;99.90;;;;;;6114735;23;20825;-74
2023/10/07 07:06:46;;;;;;;6.70;5.23;;;14.90;99.90;;;;;;6137671;23;20379;-74
2023/10/07 07:12:04;;;;;;;6.20;4.27;;;15.00;99.90;;;;;;6140458;23;20510;-73
2023/10/07 07:14:34;;;;;;;4.30;3.43;;;15.00;99.90;;;;;;6115366;23;20419;-72
2023/10/07 07:17:29;;;;;;;4.90;3.40;;;15.10;99.90;;;;;;6116442;23;20434;-74
2023/10/07 07:22:42;;;;;;;5.40;3.50;;;15.30;99.90;;;;;;6142461;23;20376;-75
2023/10/07 07:25:12;;;;;;;2.63;2.33;;;15.40;99.90;;;;;;6117716;23;20414;-74
2023/10/07 07:27:48;;;;;;;3.63;2.60;;;15.50;99.90;;;;;;6117770;23;20412;-73
2023/10/07 07:33:28;;;;;;;3.90;2.97;;;15.80;99.90;;;;;;6142459;23;20453;-75
2023/10/07 07:35:52;;;;;;;3.27;2.80;;;16.00;99.90;;;;;;6141556;23;20387;-74
2023/10/07 07:38:25;;;;;;;4.53;3.63;;;16.20;99.90;;;;;;6143421;23;20378;-74
2023/10/07 07:41:05;;;;;;;7.90;3.70;;;16.50;99.90;;;;;;6143649;23;20361;-74
2023/10/07 07:43:37;;;;;;;4.17;3.00;;;16.60;99.90;;;;;;6142681;23;20441;-76
2023/10/07 07:48:43;;;;;;;6.90;4.47;;;16.80;99.90;;;;;;6147598;23;20441;-77
2023/10/07 07:51:11;;;;;;;4.90;3.50;;;16.90;99.90;;;;;;6146845;23;20403;-74
2023/10/07 07:54:17;;;;;;;7.10;3.77;;;16.90;99.90;;;;;;6144445;23;20432;-75
2023/10/07 07:56:45;;;;;;;7.77;4.00;;;16.90;99.90;;;;;;6119540;23;20479;-73
2023/10/07 07:59:13;;;;;;;4.90;3.53;;;17.00;99.90;;;;;;6117712;23;20391;-74
2023/10/07 08:02:16;;;;;;;8.73;3.13;;;17.00;99.90;;;;;;6145037;23;20411;-77
2023/10/07 08:07:39;;;;;;;4.27;3.23;;;17.00;99.90;;;;;;6092461;23;20560;-78
2023/10/07 08:10:10;;;;;;;6.63;3.30;;;17.00;99.90;;;;;;6066033;23;20403;-75
2023/10/07 08:12:39;;;;;;;4.63;3.00;;;17.00;99.90;;;;;;6034535;23;20394;-74
2023/10/07 08:15:21;;;;;;;6.33;3.70;;;17.10;99.90;;;;;;6083465;23;20407;-75
2023/10/07 08:17:52;;;;;;;7.10;3.53;;;17.10;99.90;;;;;;6061734;23;20377;-76
2023/10/07 08:20:38;;;;;;;9.60;4.90;;;17.20;99.90;;;;;;6057644;23;20381;-74
2023/10/07 08:23:07;;;;;;;4.90;3.33;;;17.30;99.90;;;;;;6080315;23;20368;-74
2023/10/07 08:25:45;;;;;;;5.60;3.47;;;17.30;99.90;;;;;;6082796;23;20364;-73
2023/10/07 08:30:51;;;;;;;11.70;4.37;;;17.40;99.90;;;;;;6083953;23;20420;-74
2023/10/07 08:33:23;;;;;;;7.50;3.60;;;17.50;99.90;;;;;;6062017;23;20398;-76
2023/10/07 08:35:51;;;;;;;5.37;3.80;;;17.60;99.90;;;;;;6086799;23;20363;-74
2023/10/07 08:38:37;;;;;;;5.47;3.07;;;17.60;99.90;;;;;;6083186;23;20477;-74
2023/10/07 08:41:04;;;;;;;7.00;4.47;;;17.60;99.90;;;;;;6060053;23;20391;-74
2023/10/07 08:44:02;;;;;;;5.23;3.27;;;17.60;99.90;;;;;;6086089;23;20404;-75
2023/10/07 08:46:28;;;;;;;11.03;9.13;;;17.60;99.90;;;;;;6060996;23;20381;-75
2023/10/07 08:49:10;;;;;;;9.63;7.30;;;17.70;99.90;;;;;;6087195;23;20411;-76
2023/10/07 08:51:41;;;;;;;6.30;4.63;;;17.80;99.90;;;;;;6087204;23;20148;-73
2023/10/07 08:54:11;;;;;;;8.73;3.97;;;18.00;99.90;;;;;;6086363;23;20401;-73
2023/10/07 08:56:44;;;;;;;5.40;3.97;;;18.20;99.90;;;;;;6083340;23;20383;-74
2023/10/07 08:59:12;;;;;;;3.70;3.07;;;18.40;99.90;;;;;;6086298;23;20424;-76
2023/10/07 09:01:44;;;;;;;4.90;3.00;;;18.70;99.90;;;;;;6088473;23;20421;-76
2023/10/07 09:04:12;;;;;;;3.77;3.10;;;18.80;99.90;;;;;;6107682;23;20403;-74
2023/10/07 09:06:45;;;;;;;6.67;3.43;;;18.90;99.90;;;;;;6085203;23;20376;-73
2023/10/07 09:09:16;;;;;;;8.50;4.07;;;19.10;99.90;;;;;;6085864;23;20417;-75
2023/10/07 09:11:48;;;;;;;6.10;3.03;;;19.20;99.90;;;;;;6039443;23;20436;-74
2023/10/07 09:14:18;;;;;;;7.13;3.67;;;19.30;99.90;;;;;;6087067;23;20463;-74
2023/10/07 09:16:46;;;;;;;5.37;3.47;;;19.30;99.90;;;;;;6088415;23;20403;-73
2023/10/07 09:19:19;;;;;;;6.27;3.00;;;19.20;99.90;;;;;;6063194;23;20400;-75
2023/10/07 09:21:50;;;;;;;5.80;3.20;;;19.10;99.90;;;;;;6087928;23;20397;-75
2023/10/07 09:24:24;;;;;;;5.27;3.20;;;18.90;99.90;;;;;;6089806;23;20417;-75
2023/10/07 09:26:58;;;;;;;7.33;3.47;;;18.80;99.90;;;;;;6092578;23;20381;-77
2023/10/07 09:29:25;;;;;;;6.60;3.73;;;18.70;99.90;;;;;;6067899;23;20389;-77
2023/10/07 09:31:58;;;;;;;5.00;2.50;;;18.60;99.90;;;;;;6091401;23;20432;-76
2023/10/07 09:34:32;;;;;;;6.47;3.10;;;18.60;99.90;;;;;;6094073;23;20414;-78
2023/10/07 09:42:56;;;;;;;6.90;3.50;;;18.70;99.90;;;;;;6147137;23;20392;-74
2023/10/07 09:45:28;;;;;;;5.57;2.97;;;18.70;99.90;;;;;;6117377;23;20818;-76
2023/10/07 09:48:01;;;;;;;4.57;3.63;;;18.70;99.90;;;;;;6093393;23;20396;-77
2023/10/07 09:50:34;;;;;;;4.17;3.17;;;18.80;99.90;;;;;;6069620;23;20388;-76
2023/10/07 09:53:22;;;;;;;6.30;3.80;;;18.90;99.90;;;;;;6094034;23;20376;-76
2023/10/07 09:56:00;;;;;;;8.43;4.20;;;18.90;99.90;;;;;;6094710;23;20384;-75
2023/10/07 09:58:59;;;;;;;6.47;3.70;;;19.00;99.90;;;;;;6070024;23;20456;-75
2023/10/07 10:01:54;;;;;;;4.87;3.20;;;19.00;99.90;;;;;;6096818;23;20379;-73
2023/10/07 10:04:59;;;;;;;6.43;3.47;;;19.10;99.90;;;;;;6067727;23;20392;-74
2023/10/07 10:07:56;;;;;;;6.60;3.80;;;19.10;99.90;;;;;;6069207;23;20368;-75
2023/10/07 10:10:32;;;;;;;5.53;3.43;;;19.20;99.90;;;;;;6069116;23;20449;-76
2023/10/07 10:13:07;;;;;;;4.90;3.10;;;19.20;99.90;;;;;;6053304;23;20415;-76
2023/10/07 10:18:31;;;;;;;6.30;3.50;;;19.20;99.90;;;;;;6033325;23;20383;-75
2023/10/07 10:21:09;;;;;;;6.40;3.60;;;19.20;99.90;;;;;;6036186;23;20736;-76
2023/10/07 10:23:44;;;;;;;5.43;3.20;;;19.30;99.90;;;;;;6055328;23;20410;-75
2023/10/07 10:26:14;;;;;;;5.27;3.53;;;19.20;99.90;;;;;;6035810;23;20407;-75
2023/10/07 10:29:03;;;;;;;5.80;3.30;;;19.10;99.90;;;;;;6031599;23;20379;-75
2023/10/07 10:31:34;;;;;;;4.63;2.77;;;19.10;99.90;;;;;;6036643;23;20429;-76
2023/10/07 10:34:05;;;;;;;5.50;2.97;;;19.10;99.90;;;;;;6064612;23;20448;-76
2023/10/07 10:36:59;;;;;;;7.70;3.80;;;19.10;99.90;;;;;;6036146;23;20383;-77
2023/10/07 10:39:31;;;;;;;5.30;3.00;;;19.20;99.90;;;;;;6035507;23;20421;-76
2023/10/07 10:42:09;;;;;;;6.53;3.60;;;19.40;99.90;;;;;;6010449;23;20379;-74
2023/10/07 10:44:39;;;;;;;5.10;3.00;;;19.40;99.90;;;;;;6030414;23;20729;-76
2023/10/07 10:47:07;;;;;;;6.80;3.13;;;19.50;99.90;;;;;;6007555;23;20383;-76
2023/10/07 10:49:35;;;;;;;5.07;2.80;;;19.50;99.90;;;;;;5982175;23;20410;-76
2023/10/07 10:52:02;;;;;;;7.27;3.73;;;19.50;99.90;;;;;;6003963;23;20419;-75
2023/10/07 10:54:29;;;;;;;7.20;3.50;;;19.60;99.90;;;;;;6006412;23;20395;-77
2023/10/07 10:57:05;;;;;;;6.43;3.70;;;19.70;99.90;;;;;;6031546;23;20372;-77
2023/10/07 10:59:42;;;;;;;5.03;3.23;;;19.70;99.90;;;;;;6007877;23;20850;-75
2023/10/07 11:02:09;;;;;;;6.30;3.50;;;19.80;99.90;;;;;;6009416;23;20490;-77
2023/10/07 11:04:35;;;;;;;3.97;2.50;;;19.90;99.90;;;;;;5960676;23;20441;-75
2023/10/07 11:07:04;;;;;;;3.70;2.60;;;19.90;99.90;;;;;;6002070;23;20381;-76
2023/10/07 11:09:37;;;;;;;4.30;2.57;;;20.00;99.90;;;;;;6039134;23;20149;-76
2023/10/07 11:12:09;;;;;;;6.50;3.60;;;20.10;99.60;;;;;;6066450;23;20412;-73
2023/10/07 11:14:40;;;;;;;6.57;2.80;;;20.10;98.50;;;;;;6063535;23;20425;-75
2023/10/07 11:17:15;;;;;;;6.37;3.40;;;20.20;97.90;;;;;;6066280;23;20362;-76
2023/10/07 11:19:50;;;;;;;5.87;2.90;;;20.20;97.10;;;;;;6064455;23;20408;-76
2023/10/07 11:22:22;;;;;;;3.60;2.73;;;20.20;95.90;;;;;;6061881;23;20424;-76
2023/10/07 11:24:52;;;;;;;3.53;2.40;;;20.30;96.10;;;;;;6059879;23;20426;-76
2023/10/07 11:27:23;;;;;;;5.27;3.23;;;20.40;96.30;;;;;;6037052;23;20439;-77
2023/10/07 11:30:06;;;;;;;3.93;2.27;;;20.40;95.30;;;;;;6036819;23;20366;-77
2023/10/07 11:32:43;;;;;;;5.23;2.47;;;20.50;94.60;;;;;;6037332;23;20424;-77
2023/10/07 11:35:19;;;;;;;3.70;2.23;;;20.50;93.70;;;;;;6060526;23;20406;-76
2023/10/07 11:37:51;;;;;;;3.20;2.60;;;20.60;93.60;;;;;;6058887;23;20474;-75
2023/10/07 11:40:19;;;;;;;4.40;2.70;;;20.60;93.20;;;;;;6036046;23;20382;-75
2023/10/07 11:42:46;;;;;;;6.00;3.30;;;20.60;92.80;;;;;;5990215;23;20374;-78
2023/10/07 11:45:22;;;;;;;4.00;2.47;;;20.70;91.50;;;;;;6060124;23;20382;-77
2023/10/07 11:47:49;;;;;;;5.40;3.10;;;20.70;89.60;;;;;;6060405;23;20386;-77
2023/10/07 11:50:16;;;;;;;4.13;3.07;;;20.70;89.70;;;;;;6011172;23;20465;-77
2023/10/07 11:52:42;;;;;;;5.40;2.77;;;20.70;88.90;;;;;;6048141;23;20412;-76
2023/10/07 11:55:09;;;;;;;3.30;2.10;;;20.80;88.20;;;;;;6134604;23;20453;-77
2023/10/07 11:57:39;;;;;;;4.10;2.70;;;20.80;88.30;;;;;;6129143;23;20391;-77
2023/10/07 12:00:13;;;;;;;7.83;3.50;;;20.90;88.00;;;;;;6127971;23;20390;-77
2023/10/07 12:05:17;;;;;;;6.30;2.67;;;20.90;86.60;;;;;;6138194;23;20447;-78
2023/10/07 12:07:49;;;;;;;4.90;2.80;;;20.90;85.00;;;;;;6148547;23;20406;-77
2023/10/07 12:10:16;;;;;;;6.53;3.50;;;20.90;85.50;;;;;;6125682;23;20434;-77
2023/10/07 12:12:42;;;;;;;6.03;3.10;;;21.00;83.70;;;;;;6099825;23;20654;-76
2023/10/07 12:15:21;;;;;;;4.23;2.47;;;21.00;83.80;;;;;;6121745;23;20407;-76
2023/10/07 12:18:19;;;;;;;5.17;2.87;;;21.10;83.40;;;;;;6129024;23;20372;-77
2023/10/07 12:20:45;;;;;;;4.97;3.50;;;21.10;82.60;;;;;;6119283;23;20449;-77
2023/10/07 12:23:11;;;;;;;5.70;2.93;;;21.20;81.50;;;;;;6070348;23;20397;-76
2023/10/07 12:25:54;;;;;;;5.23;2.97;;;21.30;80.30;;;;;;6120284;23;20388;-77
2023/10/07 12:28:20;;;;;;;4.93;2.30;;;21.30;80.50;;;;;;6097578;23;20395;-77
2023/10/07 12:30:49;;;;;;;4.00;2.30;;;21.40;79.60;;;;;;6097212;23;20419;-75
2023/10/07 12:33:15;;;;;;;5.63;2.93;;;21.40;79.60;;;;;;6095662;23;20408;-76
2023/10/07 12:38:17;;;;;;;5.73;3.10;;;21.50;78.50;;;;;;6101696;23;20515;-77
2023/10/07 12:40:43;;;;;;;5.00;3.10;;;21.60;78.20;;;;;;6127125;23;20379;-77
2023/10/07 12:43:10;;;;;;;4.40;2.30;;;21.60;78.10;;;;;;6149839;23;20403;-75
2023/10/07 12:45:45;;;;;;;3.20;2.40;;;21.70;77.70;;;;;;6095962;23;20156;-77
2023/10/07 12:48:12;;;;;;;4.23;3.20;;;21.80;77.40;;;;;;6071081;23;20400;-76
2023/10/07 12:50:44;;;;;;;3.80;2.57;;;21.90;76.40;;;;;;6075096;23;20404;-77
2023/10/07 12:53:11;;;;;;;5.90;3.60;;;22.00;75.70;;;;;;6121934;23;20440;-76
2023/10/07 12:55:39;;;;;;;3.07;2.30;;;21.90;75.10;;;;;;6096291;23;20404;-76
2023/10/07 12:58:15;;;;;;;3.37;2.40;;;22.00;75.20;;;;;;6097836;23;20157;-77
2023/10/07 13:00:55;;;;;;;5.30;2.93;;;22.00;75.40;;;;;;6095185;23;20399;-77
2023/10/07 13:06:16;;;;;;;10.90;3.13;;;22.00;74.90;;;;;;6095987;23;20443;-78
2023/10/07 13:08:44;;;;;;;4.00;2.70;;;22.10;74.80;;;;;;6045025;23;20381;-75
2023/10/07 13:14:05;;;;;;;15.70;3.83;;;22.10;73.20;;;;;;6121633;23;20431;-78
2023/10/07 13:16:37;;;;;;;6.37;3.43;;;22.10;70.80;;;;;;6073352;23;20420;-78
2023/10/07 13:19:05;;;;;;;6.77;3.10;;;22.00;70.50;;;;;;6073110;23;20365;-76
2023/10/07 13:21:34;;;;;;;6.13;3.30;;;22.00;70.00;;;;;;6096705;23;20377;-77
2023/10/07 13:24:00;;;;;;;6.63;3.50;;;22.00;70.00;;;;;;6099596;23;20439;-78
2023/10/07 13:26:32;;;;;;;8.60;3.90;;;22.00;68.00;;;;;;6072995;23;20373;-79
2023/10/07 13:28:59;;;;;;;4.77;3.40;;;21.90;68.20;;;;;;6074143;23;20148;-76
2023/10/07 13:31:25;;;;;;;7.07;3.50;;;22.00;68.30;;;;;;6097595;23;20417;-78
2023/10/07 13:33:52;;;;;;;9.50;3.43;;;21.90;68.00;;;;;;6075361;23;20399;-78
2023/10/07 13:36:31;;;;;;;7.00;4.47;;;21.90;67.60;;;;;;6099267;23;20160;-77
2023/10/07 13:39:00;;;;;;;5.90;3.13;;;21.90;67.60;;;;;;6097709;23;20365;-77
2023/10/07 13:41:29;;;;;;;7.43;3.10;;;21.90;67.90;;;;;;6072221;23;20364;-78
2023/10/07 13:43:55;;;;;;;5.00;3.43;;;21.90;68.00;;;;;;6049611;23;20416;-77
2023/10/07 13:46:23;;;;;;;9.60;4.10;;;21.80;68.00;;;;;;6073661;23;20376;-77
2023/10/07 13:48:52;;;;;;;6.67;3.43;;;21.80;68.20;;;;;;6073918;23;20373;-76
2023/10/07 13:51:41;;;;;;;6.80;3.40;;;21.80;68.90;;;;;;6096194;23;20416;-78
2023/10/07 14:00:54;;;;;;;6.13;3.07;;;21.80;70.10;;;;;;6142271;23;20451;-78
2023/10/07 14:03:36;;;;;;;8.43;4.50;;;21.80;69.80;;;;;;6100817;23;20420;-78
2023/10/07 14:06:06;;;;;;;5.20;3.30;;;21.70;70.00;;;;;;6097200;23;20391;-78
2023/10/07 14:08:37;;;;;;;7.77;4.30;;;21.70;70.40;;;;;;6074458;23;20433;-77
2023/10/07 14:11:04;;;;;;;5.67;4.13;;;21.70;70.50;;;;;;6074168;23;20388;-77
2023/10/07 14:13:46;;;;;;;7.57;4.20;;;21.70;71.00;;;;;;6072316;23;20405;-78
2023/10/07 14:16:26;;;;;;;8.03;4.30;;;21.80;70.80;;;;;;6124973;23;20447;-77
2023/10/07 14:18:57;;;;;;;6.13;4.20;;;21.70;71.10;;;;;;6121266;23;20412;-77